Latest Weather Observations for Grove - Huon Valley - Tasmania

Station Details ID: 094220 Name: GROVE (RESEARCH STATION) Lat: -42.99 Lon: 147.07 Height: 65.0 m
Data from the previous 72 hours : Issued at 11:31 pm EST Saturday 22 September 2018
Date/Time
EST
Temp
°C
App
Temp
°C
Dew
Point
°C
Rel
Hum
%
Delta-T
°C
Wind Press
QNH
hPa
Press
MSL
hPa
Rain since
9am
mm
Dir  Spd
km/h
Gust
km/h
Spd
kts
Gust
kts
22/11:30pm 6.9 4 2.6 74 1.8 NE 7 9 4 5 0.0
22/11:00pm 7.4 3.9 1.2 65 2.5 W 9 20 5 11 0.0
22/10:30pm 7.2 4.4 2.1 70 2.1 S 6 7 3 4 0.0
22/10:00pm 7 3.9 1.3 67 2.3 SSW 7 9 4 5 0.0
22/09:30pm 7.5 4.3 3 73 1.9 SSW 9 17 5 9 0.0
22/09:00pm 7.3 4.7 3.3 76 1.7 WSW 6 7 3 4 0.0
22/08:30pm 8.6 3.9 1 59 3.1 WSW 15 24 8 13 0.0
22/08:00pm 8.7 4.8 1.4 60 3 WSW 11 17 6 9 0.0
22/07:30pm 9.2 5.2 2.6 63 2.8 SW 13 22 7 12 0.0
22/07:00pm 8.8 6.2 4 72 2.1 WSW 7 11 4 6 0.0
22/06:30pm 9.2 4.6 3.7 68 2.4 SW 17 24 9 13 0.0
22/06:00pm 10 5.1 3.9 66 2.7 SSW 19 35 10 19 0.0
22/05:30pm 10.3 7.3 4.2 66 2.7 SSW 9 15 5 8 0.0
22/05:00pm 10.5 6.9 5.2 70 2.4 SSW 13 19 7 10 0.0
22/04:30pm 10.8 6.6 5.6 70 2.4 SW 17 24 9 13 0.0
22/04:00pm 11.2 6.6 5.6 68 2.6 SSW 19 35 10 19 0.0
22/03:30pm 12.4 8.8 6.8 68 2.7 SW 15 24 8 13 0.0
22/03:00pm 12.6 9.4 8.6 76 2 SW 15 24 8 13 0.0
22/02:30pm 11.7 6.8 8.3 79 1.7 SW 24 33 13 18 0.0
22/02:00pm 16 10.2 6.1 52 4.8 W 26 41 14 22 0.0
22/01:30pm 15.9 10.4 6 52 4.8 W 24 43 13 23 0.0
22/01:04pm 15.4 9.1 5.8 52 4.6 W 28 52 15 28 0.0
22/01:00pm 15.3 10.1 5.7 52 4.6 W 22 46 12 25 0.0
22/12:30pm 15.7 10.5 5.5 50 4.9 WNW 22 48 12 26 0.0
22/12:05pm 16.1 9.7 5.2 48 5.2 W 28 46 15 25 0.0
22/12:00pm 16.1 10.1 5.2 48 5.2 W 26 46 14 25 0.0
22/11:30am 16.1 10.9 5.7 50 5 W 22 43 12 23 0.0
22/11:00am 14.9 10.3 5.4 53 4.5 W 19 28 10 15 0.0
22/10:40am 14.6 8.2 5 52 4.5 W 28 39 15 21 0.0
22/10:39am 14.6 8.2 5 52 4.5 W 28 52 15 28 0.0
22/10:30am 14.5 12.2 5.7 55 4.2 W 7 15 4 8 0.0
22/10:00am 13.4 10.2 5.3 58 3.8 NW 11 22 6 12 0.0
22/09:30am 13.3 10.4 4.6 55 4 WNW 9 19 5 10 0.0
22/09:00am 13.1 9 4.4 55 4 W 15 26 8 14 0.0
22/08:30am 12.7 7.9 4.4 57 3.8 W 19 39 10 21 0.0
22/08:00am 12.4 7.9 4 56 3.8 WSW 17 30 9 16 0.0
22/07:30am 12.1 7 3.9 57 3.7 W 20 35 11 19 0.0
22/07:00am 9.6 6.2 3.9 67 2.5 SE 11 15 6 8 0.0
22/06:30am 8 5.5 3.6 74 1.9 SSE 6 13 3 7 0.0
22/06:00am 7.5 3.8 2.2 69 2.2 NNE 11 20 6 11 0.0
22/05:30am 4.9 2 2.7 86 0.9 N 7 11 4 6 0.0
22/05:00am 5.7 2.8 2.8 81 1.2 ENE 7 11 4 6 0.0
22/04:30am 4.5 1.7 3 90 0.6 NNE 7 13 4 7 0.0
22/04:00am 7.3 5.3 2.2 70 2.1 N 2 11 1 6 0.0
22/03:30am 5.8 3.1 2.6 80 1.3 E 6 9 3 5 0.0
22/03:00am 4.2 1.5 2.7 90 0.6 NE 6 11 3 6 0.0
22/02:30am 4.4 1.8 3.2 92 0.5 N 6 11 3 6 0.0
22/02:00am 4.4 2.2 3.2 92 0.5 NNW 4 9 2 5 0.0
22/01:30am 4.8 2.6 3.4 91 0.6 NNE 4 9 2 5 0.0
22/01:00am 4.6 1.8 3.1 90 0.6 NE 7 9 4 5 0.0
22/12:30am 5.2 2.6 3.3 87 0.8 ENE 6 9 3 5 0.0
22/12:00am 5.7 3 3.8 87 0.8 NE 7 9 4 5 0.0
21/11:30pm 6.2 4.9 3.9 85 1 CALM 0 0 0 0 0.0
21/11:00pm 7.8 6.4 3.4 74 1.9 CALM 0 0 0 0 0.0
21/10:30pm 8.8 6.1 3.7 70 2.2 S 7 13 4 7 0.0
21/10:00pm 10.5 7.2 2.6 58 3.4 S 9 15 5 8 0.0
21/09:30pm 11.3 8 2.2 53 3.9 S 9 13 5 7 0.0
21/09:00pm 11.7 8.4 2.5 53 4 S 9 15 5 8 0.0
21/08:30pm 12.5 8.9 2.7 51 4.3 S 11 17 6 9 0.0
21/08:00pm 11.4 8 4 60 3.3 S 11 15 6 8 0.0
21/07:30pm 12.7 10 3.6 54 4.1 SW 7 13 4 7 0.0
21/07:00pm 12.6 9.9 3.7 54 4 SSW 7 11 4 6 0.0
21/06:30pm 13 10.4 4.2 55 4 SW 7 15 4 8 0.0
21/06:00pm 14.1 11 3.5 49 4.8 SW 9 19 5 10 0.0
21/05:30pm 15.9 13.4 3.5 43 5.7 S 6 11 3 6 0.0
21/05:00pm 16.6 12.8 4 43 5.9 W 13 19 7 10 0.0
21/04:30pm 16.1 11.8 3.5 43 5.8 SW 15 24 8 13 0.0
21/04:00pm 16.9 12.7 3.8 41 6.1 WSW 15 22 8 12 0.0
21/03:30pm 17.5 13.5 2.7 37 6.8 W 13 20 7 11 0.0
21/03:00pm 17.3 13.9 3.9 41 6.3 SSW 11 24 6 13 0.0
21/02:30pm 17.9 14.9 4.2 40 6.5 NW 9 17 5 9 0.0
21/02:00pm 18.4 16.3 5.8 43 6.2 NNW 6 9 3 5 0.0
21/01:30pm 17.3 14.6 5.8 46 5.6 NW 9 15 5 8 0.0
21/01:00pm 16.8 14.2 6.2 49 5.2 SSW 9 15 5 8 0.0
21/12:30pm 16.7 13.8 4.4 44 5.8 SW 9 22 5 12 0.0
21/12:00pm 16.3 12.4 5.5 48 5.2 W 15 26 8 14 0.0
21/11:30am 15.6 13.3 5.8 52 4.7 WSW 7 13 4 7 0.0
21/11:00am 14.9 12 4.6 50 4.8 WNW 9 19 5 10 0.0
21/10:30am 14.5 12.1 5.4 54 4.3 WSW 7 15 4 8 0.0
21/10:00am 14.1 11.4 5.4 56 4.1 W 9 13 5 7 0.0
21/09:30am 13.4 11.2 5.3 58 3.8 SE 6 9 3 5 0.0
21/09:00am 13.2 10.6 6 61 3.4 E 9 11 5 6 0.0
21/08:30am 12.6 10.1 4.8 59 3.6 SSW 7 13 4 7 0.0
21/08:00am 11 8.8 6.3 73 2.2 S 7 11 4 6 0.0
21/07:30am 8.2 6.2 7.1 93 0.5 NNE 7 9 4 5 0.0
21/07:00am 5.8 3.5 5.8 100 0 NE 7 11 4 6 0.0
21/06:30am 3.5 0.7 3.3 99 0.1 NNE 7 11 4 6 0.0
21/06:00am 3 0.1 2.8 99 0.1 NE 7 9 4 5 0.0
21/05:30am 3 0.3 2.8 99 0.1 E 6 9 3 5 0.0
21/05:00am 3.7 1.5 3.2 97 0.2 NE 4 7 2 4 0.0
21/04:30am 3.9 1.3 3.4 97 0.2 N 6 7 3 4 0.0
21/04:00am 3.6 2.2 3.4 99 0.1 CALM 0 0 0 0 0.0
21/03:30am 3.6 1.7 3.1 97 0.2 S 2 7 1 4 0.0
21/03:00am 3.9 1.3 3.4 97 0.2 NE 6 7 3 4 0.0
21/02:30am 3.7 1.2 3.5 99 0.1 ENE 6 9 3 5 0.0
21/02:00am 4.3 1.7 4.1 99 0.1 N 7 11 4 6 0.0
21/01:30am 4.2 1.1 3.5 95 0.3 NNE 9 11 5 6 0.0
21/01:00am 4.3 1.6 3.8 97 0.2 E 7 11 4 6 0.0
21/12:30am 5.1 3.1 4.2 94 0.4 NNW 4 9 2 5 0.0
21/12:00am 5.2 2.7 4.5 95 0.3 NE 7 11 4 6 0.0
20/11:30pm 5.7 3.4 4.8 94 0.4 NE 6 7 3 4 0.0
20/11:00pm 6.2 4.8 5.3 94 0.4 N 2 7 1 4 0.0
20/10:30pm 7 5.6 5.7 91 0.6 SW 2 7 1 4 0.0
20/10:00pm 8.3 6.1 6.1 86 1 N 7 11 4 6 0.0
20/09:30pm 9.6 7.9 5.9 78 1.7 E 4 6 2 3 0.0
20/09:00pm 9.7 6.3 5.8 77 1.8 W 13 19 7 10 0.0
20/08:30pm 9.8 7.7 5.9 77 1.8 W 6 9 3 5 0.0
20/08:00pm 10.3 8.7 6.2 76 1.9 W 4 6 2 3 0.0
20/07:30pm 10.9 9.8 5.2 68 2.6 CALM 0 6 0 3 0.0
20/07:00pm 12.1 9.6 4.7 60 3.4 NW 7 11 4 6 0.0
20/06:30pm 11.9 9.7 5.4 64 3 W 6 9 3 5 0.0
20/06:00pm 12.5 9.6 4.7 59 3.6 W 9 17 5 9 0.0
20/05:30pm 12.9 9.6 4.4 56 3.9 W 11 19 6 10 0.0
20/05:00pm 12.9 9.7 4.9 58 3.7 SW 11 19 6 10 0.0
20/04:30pm 13.6 9.2 4.8 55 4.1 WSW 17 28 9 15 0.0
20/04:00pm 14.3 9.9 4.9 53 4.4 WSW 17 24 9 13 0.0
20/03:30pm 14.5 10.7 5.7 55 4.2 WSW 15 24 8 13 0.0
20/03:00pm 13.8 10.2 5 55 4.1 W 13 19 7 10 0.0
20/02:30pm 13.8 10.3 5.3 56 4 W 13 19 7 10 0.0
20/02:00pm 13.8 8.6 3.7 50 4.6 W 20 32 11 17 0.0
20/01:30pm 13.4 11 5.3 58 3.8 SW 7 15 4 8 0.0
20/01:00pm 13.4 10.8 4 53 4.3 SSW 7 20 4 11 0.0
20/12:30pm 13.1 10.4 3.8 53 4.2 SSW 7 13 4 7 0.0
20/12:00pm 13.4 10.6 3.1 49 4.6 W 7 17 4 9 0.0
20/11:30am 13.6 10 2.8 48 4.8 WNW 11 19 6 10 0.0
20/11:00am 12.8 9.3 3.7 54 4.1 S 11 17 6 9 0.0
20/10:30am 12.4 8.5 3.2 53 4.1 SW 13 20 7 11 0.0
20/10:00am 11.2 8.9 4.8 64 2.9 WNW 6 11 3 6 0.0
20/09:30am 10.2 9 4.6 68 2.5 CALM 0 6 0 3 0.0
20/09:00am 7.2 5.2 4.2 81 1.3 NNE 4 6 2 3 1.4
20/08:30am 5.8 4 3.2 83 1.1 NE 2 9 1 5 1.4
20/08:00am 4 2.5 2.8 92 0.5 CALM 0 6 0 3 1.4
20/07:30am 2.4 0.7 1.9 96 0.2 CALM 0 6 0 3 1.4
20/07:00am 1.5 -1.5 1 96 0.2 SSW 6 11 3 6 1.4
20/06:30am 0.4 -2.7 0.4 100 0 NW 6 9 3 5 1.4
20/06:00am 0.3 NNE 7 9 4 5 1.4
20/05:30am 0.5 -1.5 0.2 98 0.1 CALM 0 9 0 5 1.4
20/05:00am 0 NE 2 6 1 3 1.4
20/04:30am 0.1 NNE 7 7 4 4 1.4
20/04:00am 0.5 -2.2 0.5 100 0 ENE 4 7 2 4 1.4
20/03:30am 0.2 CALM 0 0 0 0 1.4
20/03:00am -0.1 CALM 0 0 0 0 1.4
20/02:30am -0.4 NNE 6 7 3 4 1.4
20/02:00am -0.3 CALM 0 6 0 3 1.4
20/01:30am 0.2 CALM 0 0 0 0 1.4
20/01:00am 0.5 -2.6 0.2 98 0.1 N 6 7 3 4 1.4
20/12:30am 0.4 -1.5 0.4 100 0 CALM 0 6 0 3 1.4
20/12:00am 0.8 -2.2 0.5 98 0.1 N 6 7 3 4 1.4
Data Provided by Australian Government Bureau of Meteorology